Terminal Aerodrome Forecast
Issued by NWS Upton, NY

Home | Current Version | Previous Version | Text Only | Print | Product List | Glossary On
Versions: 1 2 3 4 5 6 7 8 9 10 11 12 13 14 15 16 17 18 19 20 21 22 23 24 25 26 27 28 29 30 31 32 33 34 35 36 37
412
FTUS41 KOKX 261136
TAFLGA
TAF
KLGA 261136Z 2612/2712 30017G25KT P6SM SCT045
      TEMPO 2612/2615 BKN045
     FM261500 29015G23KT P6SM BKN040
     FM262300 29013G21KT P6SM FEW035
     FM270200 27009KT P6SM SKC
     FM270700 24007KT P6SM SKC=

USA.gov is the U.S. government's official web portal to all federal, state and local government web resources and services.